Time;durP1;ratioP1;P1;durP2;ratioP2;P2;SDS_P1;SDS_P2;PMS_P1;PMS_P2;Temp;Humidity;BMP_temperature;BMP_pressure;BME280_temperature;BME280_humidity;BME280_pressure;Samples;Min_cycle;Max_cycle;Signal;HPM_P1;HPM_P2
2023/12/18 00:01:25;;;;;;;10.70;4.97;;;5.00;99.90;;;;;;4214419;28;20462;-81
2023/12/18 00:03:27;;;;;;;9.60;4.80;;;5.00;99.90;;;;;;4211924;28;20454;-81
2023/12/18 00:05:29;;;;;;;8.33;4.83;;;5.00;99.90;;;;;;4215080;28;20915;-82
2023/12/18 00:07:31;;;;;;;11.50;5.30;;;5.00;99.90;;;;;;4214556;28;20865;-81
2023/12/18 00:09:35;;;;;;;8.67;4.67;;;4.90;99.90;;;;;;4214945;28;20842;-82
2023/12/18 00:11:37;;;;;;;7.70;4.70;;;4.90;99.90;;;;;;4217343;28;20462;-81
2023/12/18 00:13:41;;;;;;;8.30;4.80;;;4.90;99.90;;;;;;4214659;28;20439;-81
2023/12/18 00:15:43;;;;;;;8.83;4.93;;;4.60;99.90;;;;;;4220306;28;20462;-81
2023/12/18 00:17:45;;;;;;;10.87;5.37;;;4.90;99.90;;;;;;4214459;28;20450;-81
2023/12/18 00:19:52;;;;;;;10.03;5.03;;;4.80;99.90;;;;;;4214264;28;20435;-81
2023/12/18 00:21:53;;;;;;;9.63;5.10;;;4.80;99.90;;;;;;4210977;28;20474;-81
2023/12/18 00:23:55;;;;;;;10.07;4.80;;;5.00;99.90;;;;;;4214997;28;20451;-81
2023/12/18 00:25:57;;;;;;;7.47;4.50;;;4.90;99.90;;;;;;4215568;28;20489;-80
2023/12/18 00:27:58;;;;;;;7.87;4.73;;;4.90;99.90;;;;;;4215846;28;20533;-79
2023/12/18 00:30:01;;;;;;;8.90;4.53;;;5.20;99.90;;;;;;4212908;28;20455;-80
2023/12/18 00:32:06;;;;;;;10.80;5.20;;;4.80;99.90;;;;;;4214442;28;20480;-80
2023/12/18 00:34:08;;;;;;;8.90;4.73;;;4.90;99.90;;;;;;4217782;28;20483;-81
2023/12/18 00:36:09;;;;;;;8.57;4.57;;;4.90;99.90;;;;;;4216595;28;20434;-81
2023/12/18 00:38:11;;;;;;;8.33;4.50;;;4.90;99.90;;;;;;4213494;28;20465;-82
2023/12/18 00:40:13;;;;;;;8.53;4.73;;;4.90;99.90;;;;;;4214828;28;20549;-82
2023/12/18 00:42:15;;;;;;;7.27;4.37;;;4.90;99.90;;;;;;4214257;28;20461;-81
2023/12/18 00:44:17;;;;;;;8.57;4.50;;;4.90;99.90;;;;;;4215689;28;20508;-82
2023/12/18 00:46:22;;;;;;;9.50;4.27;;;4.90;99.90;;;;;;4214402;28;21037;-81
2023/12/18 00:48:24;;;;;;;9.50;4.97;;;5.30;99.90;;;;;;4216838;28;20448;-81
2023/12/18 00:50:26;;;;;;;7.40;4.13;;;4.90;99.90;;;;;;4218701;28;21199;-82
2023/12/18 00:52:28;;;;;;;10.10;5.03;;;4.90;99.90;;;;;;4216814;28;20446;-81
2023/12/18 00:54:30;;;;;;;10.87;4.80;;;4.90;99.90;;;;;;4218223;28;20868;-80
2023/12/18 00:56:33;;;;;;;9.83;4.23;;;4.90;99.90;;;;;;4217898;28;20454;-81
2023/12/18 00:58:34;;;;;;;7.60;4.70;;;4.90;99.90;;;;;;4210161;28;21095;-82
2023/12/18 01:00:41;;;;;;;8.20;4.40;;;4.90;99.90;;;;;;4216210;28;20451;-81
2023/12/18 01:02:46;;;;;;;7.67;4.40;;;4.90;99.90;;;;;;4217520;28;20445;-81
2023/12/18 01:04:48;;;;;;;8.27;4.30;;;5.00;99.90;;;;;;4215913;28;20473;-82
2023/12/18 01:06:50;;;;;;;8.70;4.67;;;4.90;99.90;;;;;;4214140;28;20548;-81
2023/12/18 01:08:52;;;;;;;7.40;3.97;;;4.90;99.90;;;;;;4211516;28;20604;-81
2023/12/18 01:10:54;;;;;;;7.83;4.27;;;4.90;99.90;;;;;;4218557;28;20482;-81
2023/12/18 01:12:58;;;;;;;9.00;4.17;;;4.90;99.90;;;;;;4218363;28;20485;-81
2023/12/18 01:15:00;;;;;;;8.47;4.40;;;4.90;99.90;;;;;;4214945;28;20515;-82
2023/12/18 01:17:02;;;;;;;9.40;4.10;;;4.90;99.90;;;;;;4218330;28;20507;-82
2023/12/18 01:19:06;;;;;;;9.53;4.20;;;4.90;99.90;;;;;;4219120;28;20519;-82
2023/12/18 01:21:08;;;;;;;7.10;4.07;;;4.90;99.90;;;;;;4212653;28;20479;-82
2023/12/18 01:23:10;;;;;;;9.67;4.33;;;4.90;99.90;;;;;;4213358;28;20937;-82
2023/12/18 01:25:12;;;;;;;8.03;4.50;;;4.80;99.90;;;;;;4215071;28;20485;-82
2023/12/18 01:27:14;;;;;;;5.87;3.63;;;4.80;99.90;;;;;;4214092;28;20457;-81
2023/12/18 01:29:16;;;;;;;10.33;4.80;;;4.80;99.90;;;;;;4215598;28;20441;-82
2023/12/18 01:31:22;;;;;;;8.27;4.33;;;4.80;99.90;;;;;;4218170;28;20464;-81
2023/12/18 01:33:24;;;;;;;6.93;4.23;;;4.70;99.90;;;;;;4218198;28;20446;-82
2023/12/18 01:35:27;;;;;;;8.43;4.60;;;4.70;99.90;;;;;;4216456;28;20454;-81
2023/12/18 01:37:29;;;;;;;7.93;4.50;;;4.70;99.90;;;;;;4215054;28;20454;-81
2023/12/18 01:39:31;;;;;;;9.67;3.90;;;4.70;99.90;;;;;;4213151;28;20554;-81
2023/12/18 01:41:33;;;;;;;10.23;4.43;;;4.70;99.90;;;;;;4213483;28;21205;-81
2023/12/18 01:43:34;;;;;;;10.87;4.73;;;4.70;99.90;;;;;;4213536;28;20507;-81
2023/12/18 01:45:36;;;;;;;7.60;4.67;;;4.40;99.90;;;;;;4212555;28;20477;-81
2023/12/18 01:47:40;;;;;;;9.17;4.63;;;4.60;99.90;;;;;;4217007;28;20296;-82
2023/12/18 01:49:42;;;;;;;7.73;4.30;;;4.60;99.90;;;;;;4214837;28;20450;-82
2023/12/18 01:51:46;;;;;;;13.47;5.10;;;4.60;99.90;;;;;;4214402;28;20466;-81
2023/12/18 01:53:52;;;;;;;9.70;4.57;;;4.60;99.90;;;;;;4212178;28;20556;-82
2023/12/18 01:55:55;;;;;;;8.57;4.40;;;4.90;99.90;;;;;;4215309;28;20472;-82
2023/12/18 01:57:57;;;;;;;8.60;4.23;;;4.60;99.90;;;;;;4218299;28;20456;-82
2023/12/18 02:00:00;;;;;;;9.27;4.37;;;4.50;99.90;;;;;;4231715;28;20459;-81
2023/12/18 02:02:02;;;;;;;9.27;4.43;;;4.50;99.90;;;;;;4233416;28;20561;-81
2023/12/18 02:04:04;;;;;;;7.40;4.20;;;4.50;99.90;;;;;;4233389;28;20459;-82
2023/12/18 02:06:07;;;;;;;8.83;4.30;;;4.50;99.90;;;;;;4232619;28;20469;-81
2023/12/18 02:08:11;;;;;;;8.90;4.23;;;4.50;99.90;;;;;;4232153;28;20444;-82
2023/12/18 02:10:16;;;;;;;7.57;4.20;;;4.50;99.90;;;;;;4214697;28;20568;-82
2023/12/18 02:12:21;;;;;;;8.73;4.20;;;4.40;99.90;;;;;;4218014;28;20463;-81
2023/12/18 02:14:23;;;;;;;10.30;3.80;;;4.40;99.90;;;;;;4217340;28;20432;-81
2023/12/18 02:16:25;;;;;;;9.40;4.43;;;4.50;99.90;;;;;;4216264;28;20442;-81
2023/12/18 02:18:26;;;;;;;7.57;4.20;;;4.40;99.90;;;;;;4216172;28;20438;-82
2023/12/18 02:20:28;;;;;;;7.93;3.73;;;4.40;99.90;;;;;;4213347;28;20463;-82
2023/12/18 02:22:35;;;;;;;9.23;4.47;;;4.40;99.90;;;;;;4213036;28;20226;-81
2023/12/18 02:24:37;;;;;;;7.67;4.40;;;4.40;99.90;;;;;;4211759;28;20979;-81
2023/12/18 02:26:40;;;;;;;6.87;3.77;;;4.40;99.90;;;;;;4196921;28;20551;-81
2023/12/18 02:28:42;;;;;;;7.87;3.93;;;4.40;99.90;;;;;;4215351;28;20480;-82
2023/12/18 02:30:44;;;;;;;9.03;3.90;;;4.60;99.90;;;;;;4211857;28;21014;-82
2023/12/18 02:32:46;;;;;;;7.30;4.13;;;4.30;99.90;;;;;;4212187;28;20446;-82
2023/12/18 02:34:48;;;;;;;9.57;4.37;;;4.30;99.90;;;;;;4213705;28;20452;-82
2023/12/18 02:36:49;;;;;;;6.97;4.00;;;4.70;99.90;;;;;;4214935;28;20469;-82
2023/12/18 02:38:52;;;;;;;9.90;4.20;;;4.30;99.90;;;;;;4212381;28;20446;-82
2023/12/18 02:40:53;;;;;;;7.47;4.13;;;4.40;99.90;;;;;;4213120;28;20241;-81
2023/12/18 02:42:55;;;;;;;8.43;4.47;;;4.40;99.90;;;;;;4212743;28;20441;-81
2023/12/18 02:44:57;;;;;;;7.37;4.10;;;4.60;99.90;;;;;;4216695;28;20667;-81
2023/12/18 02:46:59;;;;;;;11.30;4.60;;;4.20;99.90;;;;;;4218376;28;20473;-80
2023/12/18 02:49:01;;;;;;;7.03;3.70;;;4.10;99.90;;;;;;4214592;28;21011;-81
2023/12/18 02:51:02;;;;;;;7.83;4.00;;;4.10;99.90;;;;;;4215331;28;21011;-82
2023/12/18 02:53:04;;;;;;;8.90;4.23;;;4.10;99.90;;;;;;4192618;28;20470;-82
2023/12/18 02:55:09;;;;;;;12.30;4.23;;;4.10;99.90;;;;;;4221485;28;20964;-82
2023/12/18 02:57:11;;;;;;;8.43;4.00;;;4.10;99.90;;;;;;4222726;28;20436;-81
2023/12/18 02:59:13;;;;;;;9.93;4.80;;;4.10;99.90;;;;;;4219166;28;20456;-82
2023/12/18 03:01:15;;;;;;;6.30;4.03;;;4.10;99.90;;;;;;4219100;28;20478;-82
2023/12/18 03:03:17;;;;;;;7.47;4.47;;;4.00;99.90;;;;;;4215362;28;20468;-81
2023/12/18 03:05:19;;;;;;;13.43;4.27;;;4.00;99.90;;;;;;4218712;28;20980;-82
2023/12/18 03:07:20;;;;;;;9.07;4.23;;;4.00;99.90;;;;;;4220359;28;20479;-82
2023/12/18 03:09:24;;;;;;;8.40;4.13;;;4.00;99.90;;;;;;4219883;28;20439;-81
2023/12/18 03:11:28;;;;;;;7.53;3.83;;;4.00;99.90;;;;;;4217056;28;20230;-82
2023/12/18 03:13:29;;;;;;;6.60;3.77;;;3.90;99.90;;;;;;4217163;28;20444;-81
2023/12/18 03:15:31;;;;;;;8.57;4.00;;;4.00;99.90;;;;;;4215479;28;20452;-82
2023/12/18 03:17:33;;;;;;;6.70;4.07;;;4.70;99.90;;;;;;4218594;28;20480;-82
2023/12/18 03:19:34;;;;;;;8.33;4.30;;;3.80;99.90;;;;;;4217079;28;20449;-82
2023/12/18 03:21:36;;;;;;;8.13;4.47;;;3.80;99.90;;;;;;4217873;28;20479;-82
2023/12/18 03:23:38;;;;;;;9.80;4.47;;;3.80;99.90;;;;;;4218867;28;20207;-82
2023/12/18 03:25:40;;;;;;;7.93;4.10;;;3.80;99.90;;;;;;4221064;28;20450;-81
2023/12/18 03:27:43;;;;;;;9.90;4.43;;;3.80;99.90;;;;;;4217178;28;22184;-82
2023/12/18 03:29:45;;;;;;;7.40;3.90;;;3.80;99.90;;;;;;4223566;28;20452;-82
2023/12/18 03:31:46;;;;;;;8.10;4.00;;;3.80;99.90;;;;;;4212520;28;20513;-81
2023/12/18 03:33:48;;;;;;;7.83;4.00;;;3.80;99.90;;;;;;4218737;28;20919;-82
2023/12/18 03:35:52;;;;;;;7.23;4.00;;;3.80;99.90;;;;;;4219495;28;20448;-82
2023/12/18 03:37:54;;;;;;;9.00;4.50;;;3.80;99.90;;;;;;4221146;28;21019;-82
2023/12/18 03:39:56;;;;;;;9.63;4.00;;;3.80;99.90;;;;;;4219753;28;20455;-81
2023/12/18 03:41:58;;;;;;;7.67;4.20;;;3.80;99.90;;;;;;4218057;28;20479;-81
2023/12/18 03:44:01;;;;;;;8.70;4.30;;;3.70;99.90;;;;;;4216746;28;20448;-81
2023/12/18 03:46:03;;;;;;;7.33;3.93;;;3.70;99.90;;;;;;4215700;28;20850;-82
2023/12/18 03:48:05;;;;;;;7.47;4.27;;;3.70;99.90;;;;;;4215969;28;20464;-82
2023/12/18 03:50:08;;;;;;;11.50;4.37;;;3.70;99.90;;;;;;4217042;28;20513;-82
2023/12/18 03:52:10;;;;;;;8.30;4.23;;;3.70;99.90;;;;;;4221425;28;20468;-82
2023/12/18 03:54:12;;;;;;;10.00;4.27;;;3.70;99.90;;;;;;4203394;28;20452;-81
2023/12/18 03:56:14;;;;;;;7.77;4.30;;;3.80;99.90;;;;;;4221221;28;20518;-82
2023/12/18 03:58:16;;;;;;;10.07;4.50;;;3.70;99.90;;;;;;4225753;28;20476;-81
2023/12/18 04:00:20;;;;;;;10.53;5.00;;;3.70;99.90;;;;;;4223481;28;20475;-82
2023/12/18 04:02:21;;;;;;;8.53;4.50;;;3.70;99.90;;;;;;4199215;28;20584;-82
2023/12/18 04:04:23;;;;;;;9.90;4.90;;;3.80;99.90;;;;;;4214368;28;20436;-82
2023/12/18 04:06:25;;;;;;;7.93;4.53;;;3.60;99.90;;;;;;4220957;28;21764;-81
2023/12/18 04:08:26;;;;;;;9.73;4.80;;;3.70;99.90;;;;;;4223782;28;20508;-82
2023/12/18 04:10:28;;;;;;;8.33;4.53;;;3.80;99.90;;;;;;4218004;28;20456;-81
2023/12/18 04:12:30;;;;;;;9.67;4.97;;;3.60;99.90;;;;;;4215780;28;20445;-82
2023/12/18 04:14:32;;;;;;;10.67;5.80;;;4.70;99.90;;;;;;4215507;28;20446;-81
2023/12/18 04:16:35;;;;;;;11.47;5.13;;;3.60;99.90;;;;;;4218394;28;20989;-82
2023/12/18 04:18:37;;;;;;;11.43;5.47;;;3.60;99.90;;;;;;4225023;28;20439;-80
2023/12/18 04:20:39;;;;;;;9.60;5.50;;;3.60;99.90;;;;;;4222492;28;20493;-80
2023/12/18 04:22:41;;;;;;;12.53;5.80;;;3.70;99.90;;;;;;4222807;28;20443;-81
2023/12/18 04:24:43;;;;;;;12.97;6.33;;;3.40;99.90;;;;;;4226006;28;20570;-81
2023/12/18 04:26:45;;;;;;;10.47;5.73;;;3.50;99.90;;;;;;4225691;28;20568;-81
2023/12/18 04:28:46;;;;;;;13.13;6.33;;;3.50;99.90;;;;;;4224050;28;20456;-81
2023/12/18 04:30:48;;;;;;;15.10;8.00;;;3.50;99.90;;;;;;4222653;28;20849;-80
2023/12/18 04:32:51;;;;;;;15.10;7.00;;;3.50;99.90;;;;;;4218534;28;20215;-81
2023/12/18 04:34:53;;;;;;;16.27;6.70;;;3.50;99.90;;;;;;4217733;28;20444;-81
2023/12/18 04:36:55;;;;;;;13.13;6.57;;;3.50;99.90;;;;;;4210404;28;20459;-81
2023/12/18 04:38:56;;;;;;;14.83;7.20;;;3.60;99.90;;;;;;4217035;28;20675;-81
2023/12/18 04:40:59;;;;;;;11.77;6.53;;;3.60;99.90;;;;;;4219337;28;20467;-81
2023/12/18 04:42:59;;;;;;;14.33;7.03;;;3.50;99.90;;;;;;4217252;28;20439;-80
2023/12/18 04:45:02;;;;;;;14.27;6.97;;;3.50;99.90;;;;;;4222078;28;20458;-81
2023/12/18 04:47:04;;;;;;;15.87;6.83;;;3.50;99.90;;;;;;4218644;28;20268;-81
2023/12/18 04:49:09;;;;;;;13.73;7.20;;;3.50;99.90;;;;;;4217135;28;20448;-81
2023/12/18 04:51:10;;;;;;;13.03;6.30;;;3.80;99.90;;;;;;4217196;28;21264;-81
2023/12/18 04:53:12;;;;;;;16.30;6.93;;;3.60;99.90;;;;;;4217024;28;20452;-80
2023/12/18 04:55:14;;;;;;;19.03;8.40;;;3.60;99.90;;;;;;4213257;28;20943;-80
2023/12/18 04:57:15;;;;;;;19.70;8.43;;;3.40;99.90;;;;;;4215753;28;20438;-81
2023/12/18 04:59:17;;;;;;;19.20;8.50;;;3.70;99.90;;;;;;4220722;28;20499;-81
2023/12/18 05:01:20;;;;;;;17.93;8.83;;;3.70;99.90;;;;;;4215763;28;20233;-81
2023/12/18 05:03:22;;;;;;;18.83;9.13;;;3.70;99.90;;;;;;4214867;28;20444;-81
2023/12/18 05:05:27;;;;;;;19.77;7.80;;;3.70;99.90;;;;;;4213688;28;20452;-81
2023/12/18 05:07:29;;;;;;;17.70;8.53;;;3.60;99.90;;;;;;4214467;28;20484;-81
2023/12/18 05:09:31;;;;;;;19.60;8.57;;;3.70;99.90;;;;;;4215814;28;20498;-81
2023/12/18 05:11:33;;;;;;;19.40;9.10;;;3.60;99.90;;;;;;4211265;28;20548;-81
2023/12/18 05:13:35;;;;;;;19.17;8.00;;;3.60;99.90;;;;;;4220462;28;20777;-80
2023/12/18 05:15:38;;;;;;;17.33;9.27;;;3.70;99.90;;;;;;4213416;28;20445;-81
2023/12/18 05:17:40;;;;;;;20.60;9.17;;;3.70;99.90;;;;;;4214207;28;20455;-80
2023/12/18 05:19:42;;;;;;;18.90;9.07;;;4.20;99.90;;;;;;4213508;28;21107;-79
2023/12/18 05:21:48;;;;;;;18.23;8.53;;;3.70;99.90;;;;;;4211745;28;20501;-78
2023/12/18 05:23:51;;;;;;;17.97;8.33;;;3.70;99.90;;;;;;4210758;28;20439;-81
2023/12/18 05:25:53;;;;;;;17.83;8.40;;;3.70;99.90;;;;;;4209715;28;20445;-79
2023/12/18 05:27:54;;;;;;;18.23;8.27;;;3.70;99.90;;;;;;4215559;28;20913;-79
2023/12/18 05:29:56;;;;;;;14.70;7.17;;;3.60;99.90;;;;;;4215645;28;20443;-80
2023/12/18 05:31:58;;;;;;;15.97;7.40;;;3.60;99.90;;;;;;4218497;28;20469;-80
2023/12/18 05:34:00;;;;;;;19.13;8.10;;;3.60;99.90;;;;;;4214601;28;20481;-81
2023/12/18 05:36:02;;;;;;;16.20;7.67;;;3.60;99.90;;;;;;4214441;28;20430;-79
2023/12/18 05:38:06;;;;;;;16.90;8.33;;;3.60;99.90;;;;;;4213963;28;20443;-80
2023/12/18 05:40:09;;;;;;;14.60;7.40;;;3.60;99.90;;;;;;4218521;28;20437;-80
2023/12/18 05:42:15;;;;;;;13.67;7.10;;;3.60;99.90;;;;;;4215277;28;20461;-80
2023/12/18 05:44:17;;;;;;;15.20;7.03;;;3.70;99.90;;;;;;4218226;28;20439;-79
2023/12/18 05:46:19;;;;;;;14.70;7.30;;;3.60;99.90;;;;;;4216170;28;20503;-80
2023/12/18 05:48:20;;;;;;;15.60;7.40;;;3.60;99.90;;;;;;4207295;28;20477;-79
2023/12/18 05:50:22;;;;;;;11.07;6.30;;;3.60;99.90;;;;;;4197249;28;20453;-81
2023/12/18 05:52:23;;;;;;;13.23;6.37;;;3.60;99.90;;;;;;4214675;28;20227;-79
2023/12/18 05:54:28;;;;;;;13.67;5.83;;;3.60;99.90;;;;;;4213961;28;20440;-80
2023/12/18 05:56:30;;;;;;;10.93;5.67;;;3.70;99.90;;;;;;4209657;28;20449;-80
2023/12/18 05:58:32;;;;;;;12.33;5.87;;;3.60;99.90;;;;;;4215911;28;20443;-79
2023/12/18 06:00:35;;;;;;;11.47;5.73;;;3.60;99.90;;;;;;4209879;28;21012;-82
2023/12/18 06:02:38;;;;;;;14.03;5.50;;;3.60;99.90;;;;;;4210856;28;20545;-81
2023/12/18 06:04:41;;;;;;;14.07;5.93;;;3.70;99.90;;;;;;4214241;28;20474;-82
2023/12/18 06:06:43;;;;;;;13.73;5.87;;;3.70;99.90;;;;;;4213793;28;20528;-82
2023/12/18 06:08:48;;;;;;;13.47;6.30;;;3.70;99.90;;;;;;4212848;28;20437;-81
2023/12/18 06:10:51;;;;;;;13.20;6.37;;;3.70;99.90;;;;;;4214614;28;20479;-82
2023/12/18 06:12:53;;;;;;;15.13;6.97;;;3.80;99.90;;;;;;4213055;28;20443;-82
2023/12/18 06:14:55;;;;;;;16.47;7.27;;;3.80;99.90;;;;;;4215537;28;20553;-81
2023/12/18 06:16:57;;;;;;;13.47;6.50;;;3.80;99.90;;;;;;4213576;28;20504;-81
2023/12/18 06:18:59;;;;;;;15.30;6.53;;;3.90;99.90;;;;;;4215299;28;20460;-81
2023/12/18 06:21:03;;;;;;;15.20;6.00;;;3.90;99.90;;;;;;4211442;28;20497;-80
2023/12/18 06:23:05;;;;;;;14.10;6.87;;;3.90;99.90;;;;;;4216225;28;20534;-82
2023/12/18 06:25:07;;;;;;;14.57;7.50;;;3.90;99.90;;;;;;4215667;28;21188;-81
2023/12/18 06:27:13;;;;;;;16.60;6.87;;;4.00;99.90;;;;;;4219538;28;20487;-81
2023/12/18 06:29:15;;;;;;;15.70;6.87;;;4.00;99.90;;;;;;4215955;28;20451;-82
2023/12/18 06:31:17;;;;;;;12.67;6.80;;;4.00;99.90;;;;;;4219433;28;20456;-80
2023/12/18 06:33:19;;;;;;;13.10;6.67;;;4.00;99.90;;;;;;4224892;28;20492;-82
2023/12/18 06:35:21;;;;;;;13.93;6.40;;;4.00;99.90;;;;;;4217132;28;20493;-80
2023/12/18 06:37:24;;;;;;;15.63;7.47;;;4.00;99.90;;;;;;4217382;28;20443;-80
2023/12/18 06:39:29;;;;;;;16.07;7.87;;;4.10;99.90;;;;;;4219080;28;20440;-82
2023/12/18 06:41:30;;;;;;;18.60;8.13;;;4.10;99.90;;;;;;4221976;28;20471;-81
2023/12/18 06:43:33;;;;;;;15.23;7.47;;;4.20;99.90;;;;;;4221735;28;20458;-80
2023/12/18 06:45:34;;;;;;;16.43;7.00;;;4.10;99.90;;;;;;4227567;28;20206;-80
2023/12/18 06:47:36;;;;;;;19.30;7.50;;;4.20;99.90;;;;;;4225102;28;20901;-79
2023/12/18 06:49:38;;;;;;;15.43;7.03;;;4.20;99.90;;;;;;4218508;28;20237;-77
2023/12/18 06:51:44;;;;;;;12.20;6.97;;;4.20;99.90;;;;;;4217010;28;20464;-79
2023/12/18 06:53:46;;;;;;;17.77;8.27;;;4.20;99.90;;;;;;4214981;28;20440;-79
2023/12/18 06:55:48;;;;;;;15.07;7.47;;;4.10;99.90;;;;;;4217190;28;20530;-78
2023/12/18 06:57:50;;;;;;;14.70;7.03;;;4.30;99.90;;;;;;4216072;28;20445;-79
2023/12/18 06:59:52;;;;;;;19.07;8.13;;;4.10;99.90;;;;;;4222956;28;20517;-78
2023/12/18 07:01:54;;;;;;;18.10;8.13;;;4.00;99.90;;;;;;4216727;28;20476;-77
2023/12/18 07:03:57;;;;;;;15.80;7.70;;;4.00;99.90;;;;;;4217745;28;20997;-78
2023/12/18 07:06:01;;;;;;;11.83;6.57;;;4.00;99.90;;;;;;4220733;28;20457;-78
2023/12/18 07:08:06;;;;;;;14.07;7.47;;;4.00;99.90;;;;;;4210300;28;21015;-77
2023/12/18 07:10:09;;;;;;;15.60;6.73;;;4.00;99.90;;;;;;4211753;28;20452;-78
2023/12/18 07:12:10;;;;;;;14.60;7.83;;;4.00;99.90;;;;;;4214939;28;20462;-77
2023/12/18 07:14:13;;;;;;;18.90;7.40;;;4.00;99.90;;;;;;4212755;28;20469;-78
2023/12/18 07:16:22;;;;;;;15.60;7.30;;;3.90;99.90;;;;;;4214969;28;20432;-77
2023/12/18 07:18:24;;;;;;;19.87;8.80;;;3.90;99.90;;;;;;4217115;28;20447;-78
2023/12/18 07:20:28;;;;;;;20.60;8.60;;;3.90;99.90;;;;;;4213070;28;20487;-77
2023/12/18 07:22:30;;;;;;;17.30;7.60;;;3.90;99.90;;;;;;4214121;28;20480;-76
2023/12/18 07:24:32;;;;;;;16.03;8.30;;;3.80;99.90;;;;;;4214358;28;20788;-76
2023/12/18 07:26:34;;;;;;;17.50;8.10;;;3.80;99.90;;;;;;4212073;28;20459;-76
2023/12/18 07:28:36;;;;;;;21.33;9.07;;;3.80;99.90;;;;;;4218848;28;20986;-77
2023/12/18 07:30:38;;;;;;;21.43;9.43;;;3.80;99.90;;;;;;4214988;28;20529;-77
2023/12/18 07:32:41;;;;;;;17.80;8.23;;;3.70;99.90;;;;;;4216217;28;20439;-77
2023/12/18 07:34:43;;;;;;;15.90;8.00;;;3.70;99.90;;;;;;4217148;28;20485;-79
2023/12/18 07:36:45;;;;;;;20.70;9.20;;;3.70;99.90;;;;;;4216979;28;20880;-79
2023/12/18 07:38:46;;;;;;;22.50;9.33;;;3.70;99.90;;;;;;4215164;28;20463;-77
2023/12/18 07:40:50;;;;;;;18.57;8.27;;;3.70;99.90;;;;;;4215189;28;20463;-78
2023/12/18 07:42:52;;;;;;;19.30;8.73;;;3.70;99.90;;;;;;4214260;28;20228;-76
2023/12/18 07:44:53;;;;;;;17.17;8.93;;;3.70;99.90;;;;;;4215032;28;20444;-77
2023/12/18 07:46:55;;;;;;;22.80;10.13;;;3.60;99.90;;;;;;4217353;28;20455;-79
2023/12/18 07:48:58;;;;;;;19.60;10.33;;;3.60;99.90;;;;;;4212769;28;20472;-80
2023/12/18 07:51:00;;;;;;;21.80;10.23;;;3.60;99.90;;;;;;4217223;28;20470;-78
2023/12/18 07:53:02;;;;;;;21.90;10.73;;;3.60;99.90;;;;;;4199099;28;20452;-78
2023/12/18 07:55:05;;;;;;;22.93;10.90;;;3.60;99.90;;;;;;4215617;28;20469;-76
2023/12/18 07:57:09;;;;;;;27.87;11.43;;;4.60;99.90;;;;;;4215914;28;20511;-78
2023/12/18 07:59:13;;;;;;;23.17;11.07;;;3.70;99.90;;;;;;4220702;28;20439;-78
2023/12/18 08:01:16;;;;;;;25.63;12.60;;;3.60;99.90;;;;;;4215923;28;20466;-79
2023/12/18 08:03:21;;;;;;;25.67;12.07;;;3.60;99.90;;;;;;4217835;28;20638;-80
2023/12/18 08:05:24;;;;;;;24.70;11.80;;;3.50;99.90;;;;;;4214001;28;20439;-77
2023/12/18 08:07:26;;;;;;;29.07;12.13;;;3.50;99.90;;;;;;4222865;28;20953;-78
2023/12/18 08:09:28;;;;;;;30.30;12.07;;;3.50;99.90;;;;;;4216546;28;20452;-79
2023/12/18 08:11:30;;;;;;;24.60;12.57;;;3.50;99.90;;;;;;4215243;28;20463;-81
2023/12/18 08:13:37;;;;;;;25.97;11.33;;;3.50;99.90;;;;;;4217624;28;20465;-78
2023/12/18 08:15:45;;;;;;;21.20;10.23;;;3.50;99.90;;;;;;4220038;28;20464;-78
2023/12/18 08:17:47;;;;;;;25.07;11.13;;;3.90;99.90;;;;;;4215198;28;20440;-76
2023/12/18 08:19:51;;;;;;;20.97;10.23;;;3.50;99.90;;;;;;4213168;28;20934;-76
2023/12/18 08:21:54;;;;;;;23.63;10.73;;;3.50;99.90;;;;;;4213089;28;20483;-77
2023/12/18 08:23:56;;;;;;;20.07;9.70;;;3.50;99.90;;;;;;4215415;28;20440;-77
2023/12/18 08:25:58;;;;;;;23.13;10.87;;;3.60;99.90;;;;;;4217085;28;20444;-76
2023/12/18 08:28:00;;;;;;;21.03;9.73;;;3.50;99.90;;;;;;4210905;28;20902;-75
2023/12/18 08:30:04;;;;;;;20.57;9.70;;;3.60;99.90;;;;;;4214661;28;20447;-75
2023/12/18 08:32:06;;;;;;;23.07;10.27;;;3.50;99.90;;;;;;4222713;28;20496;-80
2023/12/18 08:34:08;;;;;;;22.47;10.40;;;3.50;99.90;;;;;;4215515;28;20814;-81
2023/12/18 08:36:10;;;;;;;21.80;10.33;;;3.60;99.90;;;;;;4219141;28;20870;-80
2023/12/18 08:38:14;;;;;;;22.13;10.37;;;3.60;99.90;;;;;;4221925;28;20505;-83
2023/12/18 08:40:16;;;;;;;27.53;10.90;;;3.60;99.90;;;;;;4221257;28;20590;-77
2023/12/18 08:42:18;;;;;;;21.53;10.53;;;3.70;99.90;;;;;;4213237;28;20563;-76
2023/12/18 08:44:21;;;;;;;21.70;10.17;;;3.70;99.90;;;;;;4214746;28;20504;-78
2023/12/18 08:46:23;;;;;;;25.60;10.30;;;3.90;99.90;;;;;;4211796;28;20455;-78
2023/12/18 08:48:25;;;;;;;23.77;10.23;;;3.70;99.90;;;;;;4217895;28;20479;-77
2023/12/18 08:50:30;;;;;;;21.70;10.30;;;3.70;99.90;;;;;;4214255;28;20444;-78
2023/12/18 08:52:32;;;;;;;22.33;10.27;;;3.80;99.90;;;;;;4212178;28;20448;-78
2023/12/18 08:54:37;;;;;;;19.57;10.20;;;3.80;99.90;;;;;;4213634;28;20463;-78
2023/12/18 08:56:38;;;;;;;20.90;10.13;;;3.90;99.90;;;;;;4215854;28;20453;-78
2023/12/18 08:58:41;;;;;;;21.67;10.23;;;3.80;99.90;;;;;;4213428;28;20436;-78
2023/12/18 09:00:43;;;;;;;24.60;12.23;;;3.80;99.90;;;;;;4216847;28;20959;-79
2023/12/18 09:02:46;;;;;;;24.40;12.40;;;3.80;99.90;;;;;;4214184;28;20532;-82
2023/12/18 09:04:47;;;;;;;23.43;11.27;;;3.90;99.90;;;;;;4214816;28;20962;-79
2023/12/18 09:06:49;;;;;;;23.10;12.20;;;3.90;99.90;;;;;;4218831;28;20793;-78
2023/12/18 09:08:51;;;;;;;31.27;12.93;;;3.90;99.90;;;;;;4218541;28;20477;-79
2023/12/18 09:11:00;;;;;;;35.90;14.50;;;4.00;99.90;;;;;;4218652;28;20473;-76
2023/12/18 09:13:02;;;;;;;34.37;15.73;;;4.00;99.90;;;;;;4219171;28;21012;-76
2023/12/18 09:15:03;;;;;;;29.97;12.10;;;4.10;99.90;;;;;;4227280;28;20456;-77
2023/12/18 09:17:05;;;;;;;40.63;16.43;;;4.10;99.90;;;;;;4225707;28;21003;-74
2023/12/18 09:19:07;;;;;;;29.10;13.23;;;4.20;99.90;;;;;;4225777;28;20859;-80
2023/12/18 09:21:09;;;;;;;30.67;13.80;;;4.20;99.90;;;;;;4223483;28;20488;-78
2023/12/18 09:23:11;;;;;;;29.20;13.40;;;4.20;99.90;;;;;;4219163;28;20476;-78
2023/12/18 09:25:13;;;;;;;21.73;10.93;;;4.20;99.90;;;;;;4216684;28;20492;-81
2023/12/18 09:27:17;;;;;;;20.40;10.80;;;4.20;99.90;;;;;;4213745;28;20475;-77
2023/12/18 09:29:19;;;;;;;21.20;10.80;;;4.30;99.90;;;;;;4212773;28;20986;-80
2023/12/18 09:31:21;;;;;;;25.47;10.90;;;4.40;99.90;;;;;;4213524;28;20472;-80
2023/12/18 09:33:23;;;;;;;22.53;10.00;;;4.30;99.90;;;;;;4213684;28;20952;-80
2023/12/18 09:35:25;;;;;;;22.17;10.17;;;4.40;99.90;;;;;;4214952;28;20836;-80
2023/12/18 09:37:28;;;;;;;24.03;11.37;;;4.40;99.90;;;;;;4208574;28;20465;-79
2023/12/18 09:39:31;;;;;;;28.83;11.77;;;4.50;99.90;;;;;;4214349;28;21183;-79
2023/12/18 09:41:33;;;;;;;27.27;12.57;;;4.50;99.90;;;;;;4215214;28;20889;-79
2023/12/18 09:43:36;;;;;;;24.87;12.90;;;4.50;99.90;;;;;;4222166;28;20464;-80
2023/12/18 09:45:38;;;;;;;24.77;11.67;;;4.60;99.90;;;;;;4196480;28;20450;-80
2023/12/18 09:47:40;;;;;;;24.53;12.37;;;4.60;99.90;;;;;;4216453;28;20510;-80
2023/12/18 09:49:43;;;;;;;27.23;13.43;;;4.70;99.90;;;;;;4213919;28;20862;-80
2023/12/18 09:51:47;;;;;;;21.57;11.70;;;4.70;99.90;;;;;;4212229;28;20515;-79
2023/12/18 09:53:50;;;;;;;20.93;11.50;;;4.70;99.90;;;;;;4212052;28;20451;-80
2023/12/18 09:55:54;;;;;;;21.60;10.90;;;5.00;99.90;;;;;;4211897;28;20532;-79
2023/12/18 09:57:59;;;;;;;23.60;11.00;;;4.80;99.90;;;;;;4215229;28;20873;-80
2023/12/18 10:00:06;;;;;;;22.73;11.67;;;4.90;99.90;;;;;;4214085;28;21182;-79
2023/12/18 10:02:10;;;;;;;24.80;12.03;;;5.00;99.90;;;;;;4219035;28;20472;-79
2023/12/18 10:04:12;;;;;;;28.10;11.27;;;5.00;99.90;;;;;;4217963;28;21191;-80
2023/12/18 10:06:13;;;;;;;19.40;10.13;;;5.00;99.90;;;;;;4219955;28;20452;-80
2023/12/18 10:08:16;;;;;;;21.80;9.70;;;5.10;99.90;;;;;;4216113;28;20993;-79
2023/12/18 10:10:17;;;;;;;19.47;10.00;;;5.10;99.90;;;;;;4199408;28;20243;-79
2023/12/18 10:12:19;;;;;;;17.83;9.10;;;5.20;99.90;;;;;;4213327;28;20474;-79
2023/12/18 10:14:21;;;;;;;16.23;9.00;;;5.30;99.90;;;;;;4209272;28;20453;-79
2023/12/18 10:16:25;;;;;;;18.97;9.67;;;5.30;99.90;;;;;;4214284;28;20811;-79
2023/12/18 10:18:27;;;;;;;15.77;8.90;;;5.30;99.90;;;;;;4208445;28;20499;-79
2023/12/18 10:20:30;;;;;;;16.50;9.10;;;5.40;99.90;;;;;;4193353;28;20463;-79
2023/12/18 10:22:32;;;;;;;20.27;9.57;;;5.40;99.90;;;;;;4212149;28;20856;-79
2023/12/18 10:24:34;;;;;;;18.60;8.53;;;5.20;99.90;;;;;;4213072;28;20927;-79
2023/12/18 10:26:36;;;;;;;20.80;9.37;;;5.40;99.90;;;;;;4218130;28;20442;-79
2023/12/18 10:28:38;;;;;;;16.87;8.40;;;5.50;99.90;;;;;;4218977;28;20474;-80
2023/12/18 10:30:40;;;;;;;16.27;8.80;;;5.60;99.90;;;;;;4214027;28;20462;-79
2023/12/18 10:32:43;;;;;;;14.23;7.30;;;5.70;99.90;;;;;;4213511;28;20255;-80
2023/12/18 10:34:45;;;;;;;17.73;8.00;;;5.70;99.90;;;;;;4211737;28;20902;-79
2023/12/18 10:36:47;;;;;;;17.63;6.97;;;5.70;99.90;;;;;;4214113;28;20922;-79
2023/12/18 10:38:50;;;;;;;15.23;7.77;;;5.80;99.90;;;;;;4213817;28;20489;-79